sensor_id;sensor_type;location;lat;lon;timestamp;pressure;altitude;pressure_sealevel;temperature;humidity
6134;BME280;3098;42.678;23.364;2023-05-20T00:01:20;95189.72;;;11.36;100.00
6134;BME280;3098;42.678;23.364;2023-05-20T00:03:47;95268.16;;;11.95;100.00
6134;BME280;3098;42.678;23.364;2023-05-20T00:06:15;95246.88;;;11.87;100.00
6134;BME280;3098;42.678;23.364;2023-05-20T00:08:41;95260.69;;;11.97;100.00
6134;BME280;3098;42.678;23.364;2023-05-20T00:11:10;95200.13;;;11.55;100.00
6134;BME280;3098;42.678;23.364;2023-05-20T00:13:37;95239.34;;;11.80;100.00
6134;BME280;3098;42.678;23.364;2023-05-20T00:16:04;95224.00;;;11.46;100.00
6134;BME280;3098;42.678;23.364;2023-05-20T00:18:32;95272.66;;;11.86;100.00
6134;BME280;3098;42.678;23.364;2023-05-20T00:20:59;95268.59;;;11.80;100.00
6134;BME280;3098;42.678;23.364;2023-05-20T00:23:26;95253.25;;;11.55;100.00
6134;BME280;3098;42.678;23.364;2023-05-20T00:25:53;95264.41;;;11.66;100.00
6134;BME280;3098;42.678;23.364;2023-05-20T00:28:22;95261.84;;;11.52;100.00
6134;BME280;3098;42.678;23.364;2023-05-20T00:30:49;95253.50;;;11.45;100.00
6134;BME280;3098;42.678;23.364;2023-05-20T00:33:15;95246.81;;;11.47;100.00
6134;BME280;3098;42.678;23.364;2023-05-20T00:35:42;95242.72;;;11.41;100.00
6134;BME280;3098;42.678;23.364;2023-05-20T00:38:09;95244.56;;;11.41;100.00
6134;BME280;3098;42.678;23.364;2023-05-20T00:40:36;95228.56;;;11.24;100.00
6134;BME280;3098;42.678;23.364;2023-05-20T00:43:03;95242.56;;;11.38;100.00
6134;BME280;3098;42.678;23.364;2023-05-20T00:45:32;95235.13;;;11.26;100.00
6134;BME280;3098;42.678;23.364;2023-05-20T00:48:00;95241.75;;;11.37;100.00
6134;BME280;3098;42.678;23.364;2023-05-20T00:50:28;95217.94;;;11.24;100.00
6134;BME280;3098;42.678;23.364;2023-05-20T00:52:55;95212.88;;;11.14;100.00
6134;BME280;3098;42.678;23.364;2023-05-20T00:55:24;95233.88;;;11.24;100.00
6134;BME280;3098;42.678;23.364;2023-05-20T00:57:52;95236.03;;;11.22;100.00
6134;BME280;3098;42.678;23.364;2023-05-20T01:00:19;95195.25;;;10.95;100.00
6134;BME280;3098;42.678;23.364;2023-05-20T01:02:48;95236.22;;;11.03;100.00
6134;BME280;3098;42.678;23.364;2023-05-20T01:05:15;95251.56;;;11.06;100.00
6134;BME280;3098;42.678;23.364;2023-05-20T01:07:42;95246.25;;;11.06;100.00
6134;BME280;3098;42.678;23.364;2023-05-20T01:10:10;95253.59;;;11.09;100.00
6134;BME280;3098;42.678;23.364;2023-05-20T01:12:39;95251.25;;;11.08;100.00
6134;BME280;3098;42.678;23.364;2023-05-20T01:15:08;95244.47;;;11.02;100.00
6134;BME280;3098;42.678;23.364;2023-05-20T01:17:39;95246.72;;;11.08;100.00
6134;BME280;3098;42.678;23.364;2023-05-20T01:20:12;95242.06;;;10.91;100.00
6134;BME280;3098;42.678;23.364;2023-05-20T01:22:47;95255.81;;;10.93;100.00
6134;BME280;3098;42.678;23.364;2023-05-20T01:25:14;95228.75;;;10.83;100.00
6134;BME280;3098;42.678;23.364;2023-05-20T01:27:41;95254.19;;;10.84;100.00
6134;BME280;3098;42.678;23.364;2023-05-20T01:30:09;95224.16;;;10.75;100.00
6134;BME280;3098;42.678;23.364;2023-05-20T01:32:38;95233.84;;;10.79;100.00
6134;BME280;3098;42.678;23.364;2023-05-20T01:35:07;95241.53;;;10.81;100.00
6134;BME280;3098;42.678;23.364;2023-05-20T01:37:37;95211.22;;;10.60;100.00
6134;BME280;3098;42.678;23.364;2023-05-20T01:40:07;95258.66;;;10.97;100.00
6134;BME280;3098;42.678;23.364;2023-05-20T01:42:35;95236.84;;;10.64;100.00
6134;BME280;3098;42.678;23.364;2023-05-20T01:45:03;95256.66;;;10.80;100.00
6134;BME280;3098;42.678;23.364;2023-05-20T01:47:30;95253.88;;;10.85;100.00
6134;BME280;3098;42.678;23.364;2023-05-20T01:49:57;95213.53;;;10.39;100.00
6134;BME280;3098;42.678;23.364;2023-05-20T01:52:24;95214.53;;;10.43;100.00
6134;BME280;3098;42.678;23.364;2023-05-20T01:54:51;95223.63;;;10.51;100.00
6134;BME280;3098;42.678;23.364;2023-05-20T01:57:21;95247.97;;;10.66;100.00
6134;BME280;3098;42.678;23.364;2023-05-20T01:59:48;95227.97;;;10.47;100.00
6134;BME280;3098;42.678;23.364;2023-05-20T02:02:16;95250.16;;;10.51;100.00
6134;BME280;3098;42.678;23.364;2023-05-20T02:04:44;95240.56;;;10.41;100.00
6134;BME280;3098;42.678;23.364;2023-05-20T02:07:12;95240.81;;;10.53;100.00
6134;BME280;3098;42.678;23.364;2023-05-20T02:09:39;95219.44;;;10.36;100.00
6134;BME280;3098;42.678;23.364;2023-05-20T02:12:06;95241.41;;;10.50;100.00
6134;BME280;3098;42.678;23.364;2023-05-20T02:14:36;95219.66;;;10.26;100.00
6134;BME280;3098;42.678;23.364;2023-05-20T02:17:03;95235.16;;;10.32;100.00
6134;BME280;3098;42.678;23.364;2023-05-20T02:19:30;95234.97;;;10.29;100.00
6134;BME280;3098;42.678;23.364;2023-05-20T02:21:57;95209.88;;;10.13;100.00
6134;BME280;3098;42.678;23.364;2023-05-20T02:24:24;95198.25;;;10.09;100.00
6134;BME280;3098;42.678;23.364;2023-05-20T02:26:51;95225.94;;;10.30;100.00
6134;BME280;3098;42.678;23.364;2023-05-20T02:29:20;95229.94;;;10.41;100.00
6134;BME280;3098;42.678;23.364;2023-05-20T02:31:48;95230.53;;;10.38;100.00
6134;BME280;3098;42.678;23.364;2023-05-20T02:34:16;95233.31;;;10.33;100.00
6134;BME280;3098;42.678;23.364;2023-05-20T02:36:43;95225.84;;;10.35;100.00
6134;BME280;3098;42.678;23.364;2023-05-20T02:39:10;95223.66;;;10.37;100.00
6134;BME280;3098;42.678;23.364;2023-05-20T02:41:37;95202.16;;;10.25;100.00
6134;BME280;3098;42.678;23.364;2023-05-20T02:44:04;95228.38;;;10.40;100.00
6134;BME280;3098;42.678;23.364;2023-05-20T02:46:32;95228.16;;;10.36;100.00
6134;BME280;3098;42.678;23.364;2023-05-20T02:49:00;95213.28;;;10.27;100.00
6134;BME280;3098;42.678;23.364;2023-05-20T02:51:28;95227.88;;;10.38;100.00
6134;BME280;3098;42.678;23.364;2023-05-20T02:53:56;95215.03;;;10.31;100.00
6134;BME280;3098;42.678;23.364;2023-05-20T02:56:23;95170.88;;;10.00;100.00
6134;BME280;3098;42.678;23.364;2023-05-20T02:58:51;95150.59;;;9.81;100.00
6134;BME280;3098;42.678;23.364;2023-05-20T03:01:18;95173.72;;;10.03;100.00
6134;BME280;3098;42.678;23.364;2023-05-20T03:03:45;95227.69;;;10.34;100.00
6134;BME280;3098;42.678;23.364;2023-05-20T03:06:13;95238.00;;;10.36;100.00
6134;BME280;3098;42.678;23.364;2023-05-20T03:08:40;95204.25;;;10.14;100.00
6134;BME280;3098;42.678;23.364;2023-05-20T03:11:07;95180.59;;;10.04;100.00
6134;BME280;3098;42.678;23.364;2023-05-20T03:13:34;95243.69;;;10.43;100.00
6134;BME280;3098;42.678;23.364;2023-05-20T03:16:01;95242.56;;;10.58;100.00
6134;BME280;3098;42.678;23.364;2023-05-20T03:18:28;95252.22;;;10.76;100.00
6134;BME280;3098;42.678;23.364;2023-05-20T03:20:55;95248.31;;;11.09;100.00
6134;BME280;3098;42.678;23.364;2023-05-20T03:23:23;95248.19;;;11.45;100.00
6134;BME280;3098;42.678;23.364;2023-05-20T03:25:50;95212.94;;;11.53;100.00
6134;BME280;3098;42.678;23.364;2023-05-20T03:28:17;95241.66;;;12.13;100.00
6134;BME280;3098;42.678;23.364;2023-05-20T03:30:44;95237.13;;;12.22;100.00
6134;BME280;3098;42.678;23.364;2023-05-20T03:33:11;95215.72;;;12.35;100.00
6134;BME280;3098;42.678;23.364;2023-05-20T03:35:39;95211.22;;;12.96;100.00
6134;BME280;3098;42.678;23.364;2023-05-20T03:38:06;95239.50;;;13.60;100.00
6134;BME280;3098;42.678;23.364;2023-05-20T03:40:35;95229.47;;;14.04;100.00
6134;BME280;3098;42.678;23.364;2023-05-20T03:43:02;95228.53;;;14.37;100.00
6134;BME280;3098;42.678;23.364;2023-05-20T03:45:29;95214.66;;;14.15;100.00
6134;BME280;3098;42.678;23.364;2023-05-20T03:47:56;95144.06;;;13.45;100.00
6134;BME280;3098;42.678;23.364;2023-05-20T03:50:23;95177.69;;;13.20;100.00
6134;BME280;3098;42.678;23.364;2023-05-20T03:52:51;95207.16;;;12.98;100.00
6134;BME280;3098;42.678;23.364;2023-05-20T03:55:17;95209.53;;;12.83;100.00
6134;BME280;3098;42.678;23.364;2023-05-20T03:57:46;95239.56;;;12.83;100.00
6134;BME280;3098;42.678;23.364;2023-05-20T04:00:13;95221.25;;;12.56;100.00
6134;BME280;3098;42.678;23.364;2023-05-20T04:02:41;95228.88;;;12.40;100.00
6134;BME280;3098;42.678;23.364;2023-05-20T04:05:08;95230.25;;;12.21;100.00
6134;BME280;3098;42.678;23.364;2023-05-20T04:07:35;95180.63;;;11.99;100.00
6134;BME280;3098;42.678;23.364;2023-05-20T04:10:02;95234.69;;;12.51;100.00
6134;BME280;3098;42.678;23.364;2023-05-20T04:12:29;95250.06;;;13.05;100.00
6134;BME280;3098;42.678;23.364;2023-05-20T04:14:59;95241.47;;;14.48;100.00
6134;BME280;3098;42.678;23.364;2023-05-20T04:17:27;95211.44;;;15.78;100.00
6134;BME280;3098;42.678;23.364;2023-05-20T04:19:55;95244.03;;;16.65;100.00
6134;BME280;3098;42.678;23.364;2023-05-20T04:22:24;95238.06;;;17.23;97.71
6134;BME280;3098;42.678;23.364;2023-05-20T04:24:51;95239.75;;;17.28;93.02
6134;BME280;3098;42.678;23.364;2023-05-20T04:27:18;95189.28;;;16.90;91.14
6134;BME280;3098;42.678;23.364;2023-05-20T04:29:45;95152.25;;;16.28;90.09
6134;BME280;3098;42.678;23.364;2023-05-20T04:32:16;95240.75;;;16.96;86.89
6134;BME280;3098;42.678;23.364;2023-05-20T04:34:44;95220.72;;;16.65;87.33
6134;BME280;3098;42.678;23.364;2023-05-20T04:37:12;95241.50;;;17.79;83.91
6134;BME280;3098;42.678;23.364;2023-05-20T04:39:39;95245.69;;;19.44;74.48
6134;BME280;3098;42.678;23.364;2023-05-20T04:42:08;95251.75;;;21.00;64.29
6134;BME280;3098;42.678;23.364;2023-05-20T04:44:35;95252.44;;;21.23;59.66
6134;BME280;3098;42.678;23.364;2023-05-20T04:47:02;95254.16;;;22.05;52.23
6134;BME280;3098;42.678;23.364;2023-05-20T04:49:33;95198.53;;;22.51;50.95
6134;BME280;3098;42.678;23.364;2023-05-20T04:52:01;95238.91;;;22.74;48.17
6134;BME280;3098;42.678;23.364;2023-05-20T04:54:29;95198.19;;;22.53;47.75
6134;BME280;3098;42.678;23.364;2023-05-20T04:56:57;95264.81;;;23.40;47.33
6134;BME280;3098;42.678;23.364;2023-05-20T04:59:24;95220.53;;;24.36;44.44
6134;BME280;3098;42.678;23.364;2023-05-20T05:01:51;95263.38;;;22.95;46.52
6134;BME280;3098;42.678;23.364;2023-05-20T05:04:18;95174.78;;;23.96;44.31
6134;BME280;3098;42.678;23.364;2023-05-20T05:06:48;95251.13;;;25.94;41.07
6134;BME280;3098;42.678;23.364;2023-05-20T05:09:15;95235.94;;;25.06;40.96
6134;BME280;3098;42.678;23.364;2023-05-20T05:11:42;95255.16;;;22.30;47.15
6134;BME280;3098;42.678;23.364;2023-05-20T05:14:08;95260.78;;;23.13;47.67
6134;BME280;3098;42.678;23.364;2023-05-20T05:16:35;95091.22;;;23.66;43.94
6134;BME280;3098;42.678;23.364;2023-05-20T05:19:02;95256.47;;;25.14;42.93
6134;BME280;3098;42.678;23.364;2023-05-20T05:21:29;95251.47;;;26.07;40.40
6134;BME280;3098;42.678;23.364;2023-05-20T05:23:58;95246.59;;;25.74;41.23
6134;BME280;3098;42.678;23.364;2023-05-20T05:26:25;95245.00;;;26.93;39.00
6134;BME280;3098;42.678;23.364;2023-05-20T05:28:53;95246.03;;;26.62;38.31
6134;BME280;3098;42.678;23.364;2023-05-20T05:31:21;95236.41;;;24.91;41.41
6134;BME280;3098;42.678;23.364;2023-05-20T05:33:48;95238.22;;;26.12;38.83
6134;BME280;3098;42.678;23.364;2023-05-20T05:36:15;95234.47;;;26.51;38.64
6134;BME280;3098;42.678;23.364;2023-05-20T05:38:42;95241.63;;;25.61;39.75
6134;BME280;3098;42.678;23.364;2023-05-20T05:41:11;95248.28;;;25.36;39.54
6134;BME280;3098;42.678;23.364;2023-05-20T05:43:37;95239.47;;;26.56;38.07
6134;BME280;3098;42.678;23.364;2023-05-20T05:46:04;95212.38;;;25.83;38.49
6134;BME280;3098;42.678;23.364;2023-05-20T05:48:32;95207.66;;;25.00;40.54
6134;BME280;3098;42.678;23.364;2023-05-20T05:50:59;95221.47;;;26.69;38.14
6134;BME280;3098;42.678;23.364;2023-05-20T05:53:26;95199.31;;;26.22;38.71
6134;BME280;3098;42.678;23.364;2023-05-20T05:55:53;95192.50;;;25.97;39.52
6134;BME280;3098;42.678;23.364;2023-05-20T05:58:22;95214.66;;;28.19;35.87
6134;BME280;3098;42.678;23.364;2023-05-20T06:00:50;95231.00;;;24.48;40.05
6134;BME280;3098;42.678;23.364;2023-05-20T06:03:17;95229.72;;;23.79;42.35
6134;BME280;3098;42.678;23.364;2023-05-20T06:05:44;95211.81;;;22.67;44.96
6134;BME280;3098;42.678;23.364;2023-05-20T06:08:12;95230.41;;;22.79;45.38
6134;BME280;3098;42.678;23.364;2023-05-20T06:10:39;95228.88;;;23.47;43.96
6134;BME280;3098;42.678;23.364;2023-05-20T06:13:06;95212.38;;;24.47;43.44
6134;BME280;3098;42.678;23.364;2023-05-20T06:15:34;95219.75;;;26.45;39.17
6134;BME280;3098;42.678;23.364;2023-05-20T06:18:01;95206.19;;;24.32;40.45
6134;BME280;3098;42.678;23.364;2023-05-20T06:20:28;95217.81;;;24.47;42.24
6134;BME280;3098;42.678;23.364;2023-05-20T06:22:55;95225.91;;;27.30;37.61
6134;BME280;3098;42.678;23.364;2023-05-20T06:25:22;95214.69;;;27.59;34.78
6134;BME280;3098;42.678;23.364;2023-05-20T06:27:50;95225.72;;;28.09;35.07
6134;BME280;3098;42.678;23.364;2023-05-20T06:30:17;95199.72;;;28.27;35.02
6134;BME280;3098;42.678;23.364;2023-05-20T06:32:46;95194.16;;;27.51;35.76
6134;BME280;3098;42.678;23.364;2023-05-20T06:35:13;95220.25;;;27.14;36.97
6134;BME280;3098;42.678;23.364;2023-05-20T06:37:40;95166.28;;;28.46;34.54
6134;BME280;3098;42.678;23.364;2023-05-20T06:40:08;95158.56;;;29.27;32.84
6134;BME280;3098;42.678;23.364;2023-05-20T06:42:35;95182.84;;;29.61;32.69
6134;BME280;3098;42.678;23.364;2023-05-20T06:45:02;95207.63;;;28.45;33.89
6134;BME280;3098;42.678;23.364;2023-05-20T06:47:29;95190.84;;;29.52;32.98
6134;BME280;3098;42.678;23.364;2023-05-20T06:49:58;95194.22;;;28.54;33.15
6134;BME280;3098;42.678;23.364;2023-05-20T06:52:24;95200.25;;;26.53;36.11
6134;BME280;3098;42.678;23.364;2023-05-20T06:54:52;95195.38;;;30.14;31.47
6134;BME280;3098;42.678;23.364;2023-05-20T06:57:19;95200.50;;;28.28;33.71
6134;BME280;3098;42.678;23.364;2023-05-20T06:59:46;95203.97;;;28.02;33.78
6134;BME280;3098;42.678;23.364;2023-05-20T07:02:13;95204.84;;;27.34;34.83
6134;BME280;3098;42.678;23.364;2023-05-20T07:04:40;95193.72;;;28.59;32.78
6134;BME280;3098;42.678;23.364;2023-05-20T07:07:11;95160.63;;;28.57;32.52
6134;BME280;3098;42.678;23.364;2023-05-20T07:09:38;95063.66;;;28.72;32.08
6134;BME280;3098;42.678;23.364;2023-05-20T07:12:06;95157.75;;;30.02;30.83
6134;BME280;3098;42.678;23.364;2023-05-20T07:14:34;95210.84;;;28.86;33.78
6134;BME280;3098;42.678;23.364;2023-05-20T07:17:00;95190.88;;;27.32;34.58
6134;BME280;3098;42.678;23.364;2023-05-20T07:19:28;95160.72;;;29.55;31.69
6134;BME280;3098;42.678;23.364;2023-05-20T07:21:55;95192.94;;;29.05;32.09
6134;BME280;3098;42.678;23.364;2023-05-20T07:24:25;95189.53;;;28.05;32.47
6134;BME280;3098;42.678;23.364;2023-05-20T07:26:52;95172.56;;;29.29;30.50
6134;BME280;3098;42.678;23.364;2023-05-20T07:29:19;95193.53;;;27.70;32.64
6134;BME280;3098;42.678;23.364;2023-05-20T07:31:46;95152.00;;;27.59;33.56
6134;BME280;3098;42.678;23.364;2023-05-20T07:34:13;95194.38;;;30.40;29.44
6134;BME280;3098;42.678;23.364;2023-05-20T07:36:40;95188.94;;;31.30;27.54
6134;BME280;3098;42.678;23.364;2023-05-20T07:39:08;95175.00;;;31.24;28.21
6134;BME280;3098;42.678;23.364;2023-05-20T07:41:37;95194.28;;;30.44;29.21
6134;BME280;3098;42.678;23.364;2023-05-20T07:44:05;95194.50;;;29.45;30.73
6134;BME280;3098;42.678;23.364;2023-05-20T07:46:33;95194.78;;;30.55;29.20
6134;BME280;3098;42.678;23.364;2023-05-20T07:49:00;95188.53;;;32.23;26.78
6134;BME280;3098;42.678;23.364;2023-05-20T07:51:28;95172.16;;;30.83;28.54
6134;BME280;3098;42.678;23.364;2023-05-20T07:53:55;95186.91;;;29.14;29.87
6134;BME280;3098;42.678;23.364;2023-05-20T07:56:22;95186.06;;;30.28;28.40
6134;BME280;3098;42.678;23.364;2023-05-20T07:58:56;95163.28;;;29.82;28.19
6134;BME280;3098;42.678;23.364;2023-05-20T08:01:24;95168.03;;;29.78;29.70
6134;BME280;3098;42.678;23.364;2023-05-20T08:03:51;95146.22;;;30.59;28.47
6134;BME280;3098;42.678;23.364;2023-05-20T08:06:19;95148.13;;;28.36;30.85
6134;BME280;3098;42.678;23.364;2023-05-20T08:08:46;95177.56;;;29.70;29.86
6134;BME280;3098;42.678;23.364;2023-05-20T08:11:13;95188.97;;;26.96;33.28
6134;BME280;3098;42.678;23.364;2023-05-20T08:13:40;95160.53;;;25.56;35.29
6134;BME280;3098;42.678;23.364;2023-05-20T08:16:08;95166.22;;;24.96;37.01
6134;BME280;3098;42.678;23.364;2023-05-20T08:18:35;95178.72;;;26.25;35.94
6134;BME280;3098;42.678;23.364;2023-05-20T08:21:04;95153.88;;;26.64;35.20
6134;BME280;3098;42.678;23.364;2023-05-20T08:23:32;95165.31;;;25.28;36.58
6134;BME280;3098;42.678;23.364;2023-05-20T08:26:00;95174.03;;;24.80;37.74
6134;BME280;3098;42.678;23.364;2023-05-20T08:28:28;95175.13;;;26.35;36.09
6134;BME280;3098;42.678;23.364;2023-05-20T08:30:55;95149.56;;;27.07;34.44
6134;BME280;3098;42.678;23.364;2023-05-20T08:33:25;95166.63;;;26.33;35.26
6134;BME280;3098;42.678;23.364;2023-05-20T08:35:52;95140.66;;;27.90;33.57
6134;BME280;3098;42.678;23.364;2023-05-20T08:38:19;95176.38;;;27.43;33.44
6134;BME280;3098;42.678;23.364;2023-05-20T08:40:50;95146.69;;;25.95;35.01
6134;BME280;3098;42.678;23.364;2023-05-20T08:43:19;95165.25;;;27.60;33.66
6134;BME280;3098;42.678;23.364;2023-05-20T08:45:46;95157.44;;;28.62;31.50
6134;BME280;3098;42.678;23.364;2023-05-20T08:48:15;95167.25;;;30.30;29.59
6134;BME280;3098;42.678;23.364;2023-05-20T08:50:49;95152.69;;;30.33;29.86
6134;BME280;3098;42.678;23.364;2023-05-20T08:53:17;95174.69;;;28.09;33.14
6134;BME280;3098;42.678;23.364;2023-05-20T08:55:47;95132.81;;;28.42;33.26
6134;BME280;3098;42.678;23.364;2023-05-20T08:58:18;95148.81;;;27.03;34.53
6134;BME280;3098;42.678;23.364;2023-05-20T09:00:46;95180.63;;;28.50;32.10
6134;BME280;3098;42.678;23.364;2023-05-20T09:03:13;95174.22;;;28.61;32.37
6134;BME280;3098;42.678;23.364;2023-05-20T09:05:40;95162.34;;;28.94;31.56
6134;BME280;3098;42.678;23.364;2023-05-20T09:08:10;95154.41;;;27.23;33.22
6134;BME280;3098;42.678;23.364;2023-05-20T09:10:39;95121.53;;;27.94;32.82
6134;BME280;3098;42.678;23.364;2023-05-20T09:13:08;95155.78;;;28.45;33.16
6134;BME280;3098;42.678;23.364;2023-05-20T09:15:35;95152.34;;;27.91;33.47
6134;BME280;3098;42.678;23.364;2023-05-20T09:18:06;95100.63;;;25.78;35.69
6134;BME280;3098;42.678;23.364;2023-05-20T09:20:34;95124.44;;;24.62;38.73
6134;BME280;3098;42.678;23.364;2023-05-20T09:23:05;95093.53;;;24.03;39.27
6134;BME280;3098;42.678;23.364;2023-05-20T09:25:35;95125.41;;;25.87;37.05
6134;BME280;3098;42.678;23.364;2023-05-20T09:28:03;95142.59;;;26.65;35.76
6134;BME280;3098;42.678;23.364;2023-05-20T09:30:31;95146.50;;;24.71;39.52
6134;BME280;3098;42.678;23.364;2023-05-20T09:33:00;95148.00;;;25.73;38.29
6134;BME280;3098;42.678;23.364;2023-05-20T09:35:27;95071.75;;;24.59;39.52
6134;BME280;3098;42.678;23.364;2023-05-20T09:37:55;95092.09;;;25.10;39.23
6134;BME280;3098;42.678;23.364;2023-05-20T09:40:24;95092.75;;;25.32;39.19
6134;BME280;3098;42.678;23.364;2023-05-20T09:42:55;95117.81;;;26.19;37.61
6134;BME280;3098;42.678;23.364;2023-05-20T09:45:23;95060.50;;;27.34;35.36
6134;BME280;3098;42.678;23.364;2023-05-20T09:47:52;95128.78;;;26.46;36.67
6134;BME280;3098;42.678;23.364;2023-05-20T09:50:20;95102.88;;;26.71;35.76
6134;BME280;3098;42.678;23.364;2023-05-20T09:52:49;95097.53;;;26.23;36.67
6134;BME280;3098;42.678;23.364;2023-05-20T09:55:17;95116.22;;;24.97;38.45
6134;BME280;3098;42.678;23.364;2023-05-20T09:57:45;95100.88;;;23.95;40.78
6134;BME280;3098;42.678;23.364;2023-05-20T10:00:15;95094.88;;;25.03;39.50
6134;BME280;3098;42.678;23.364;2023-05-20T10:02:45;95110.16;;;24.37;40.13
6134;BME280;3098;42.678;23.364;2023-05-20T10:05:19;95097.56;;;26.20;36.35
6134;BME280;3098;42.678;23.364;2023-05-20T10:10:45;95099.84;;;27.00;35.54
6134;BME280;3098;42.678;23.364;2023-05-20T10:13:24;95040.19;;;25.01;38.29
6134;BME280;3098;42.678;23.364;2023-05-20T10:16:02;95007.94;;;25.17;37.71
6134;BME280;3098;42.678;23.364;2023-05-20T10:18:43;95071.09;;;25.21;37.67
6134;BME280;3098;42.678;23.364;2023-05-20T10:21:17;95085.69;;;26.00;38.16
6134;BME280;3098;42.678;23.364;2023-05-20T10:23:46;95072.22;;;24.23;36.34
6134;BME280;3098;42.678;23.364;2023-05-20T10:26:13;95044.38;;;23.59;37.04
6134;BME280;3098;42.678;23.364;2023-05-20T10:28:41;95079.97;;;24.07;37.02
6134;BME280;3098;42.678;23.364;2023-05-20T10:31:16;95071.41;;;23.37;37.87
6134;BME280;3098;42.678;23.364;2023-05-20T10:33:44;95022.31;;;23.35;37.75
6134;BME280;3098;42.678;23.364;2023-05-20T10:36:22;95065.66;;;22.39;39.20
6134;BME280;3098;42.678;23.364;2023-05-20T10:38:51;94955.63;;;22.36;38.58
6134;BME280;3098;42.678;23.364;2023-05-20T10:41:20;94973.44;;;22.58;39.53
6134;BME280;3098;42.678;23.364;2023-05-20T10:43:58;94997.97;;;23.71;39.18
6134;BME280;3098;42.678;23.364;2023-05-20T10:46:27;95052.41;;;22.95;38.54
6134;BME280;3098;42.678;23.364;2023-05-20T10:48:54;95038.19;;;23.48;38.57
6134;BME280;3098;42.678;23.364;2023-05-20T10:51:22;95038.53;;;23.21;38.21
6134;BME280;3098;42.678;23.364;2023-05-20T10:53:52;95032.22;;;22.71;38.94
6134;BME280;3098;42.678;23.364;2023-05-20T10:56:21;95038.13;;;23.12;38.34
6134;BME280;3098;42.678;23.364;2023-05-20T10:58:48;95041.97;;;23.08;38.50
6134;BME280;3098;42.678;23.364;2023-05-20T11:01:17;95029.28;;;24.00;37.46
6134;BME280;3098;42.678;23.364;2023-05-20T11:03:45;95035.09;;;23.88;37.51
6134;BME280;3098;42.678;23.364;2023-05-20T11:06:14;95025.91;;;24.93;35.35
6134;BME280;3098;42.678;23.364;2023-05-20T11:08:43;94997.97;;;23.42;36.24
6134;BME280;3098;42.678;23.364;2023-05-20T11:11:10;95006.47;;;23.80;37.24
6134;BME280;3098;42.678;23.364;2023-05-20T11:13:37;95009.53;;;24.03;38.98
6134;BME280;3098;42.678;23.364;2023-05-20T11:16:05;95025.31;;;25.23;37.18
6134;BME280;3098;42.678;23.364;2023-05-20T11:18:32;95021.97;;;23.40;40.67
6134;BME280;3098;42.678;23.364;2023-05-20T11:21:01;95018.88;;;23.45;42.00
6134;BME280;3098;42.678;23.364;2023-05-20T11:23:29;95012.97;;;22.87;42.53
6134;BME280;3098;42.678;23.364;2023-05-20T11:25:56;95009.25;;;22.33;44.00
6134;BME280;3098;42.678;23.364;2023-05-20T11:28:24;94959.84;;;22.33;43.63
6134;BME280;3098;42.678;23.364;2023-05-20T11:30:51;94984.81;;;23.13;41.88
6134;BME280;3098;42.678;23.364;2023-05-20T11:33:19;94859.97;;;21.61;41.29
6134;BME280;3098;42.678;23.364;2023-05-20T11:35:47;94983.44;;;21.74;42.83
6134;BME280;3098;42.678;23.364;2023-05-20T11:38:17;94925.06;;;21.45;43.44
6134;BME280;3098;42.678;23.364;2023-05-20T11:40:46;94971.53;;;21.83;44.04
6134;BME280;3098;42.678;23.364;2023-05-20T11:43:13;94988.66;;;22.04;43.82
6134;BME280;3098;42.678;23.364;2023-05-20T11:45:42;94988.63;;;21.94;43.87
6134;BME280;3098;42.678;23.364;2023-05-20T11:48:10;94980.69;;;21.64;44.64
6134;BME280;3098;42.678;23.364;2023-05-20T11:50:43;94959.94;;;21.78;45.17
6134;BME280;3098;42.678;23.364;2023-05-20T11:53:14;94990.25;;;22.12;45.08
6134;BME280;3098;42.678;23.364;2023-05-20T11:55:48;94960.56;;;22.16;43.76
6134;BME280;3098;42.678;23.364;2023-05-20T11:58:17;94996.09;;;22.21;43.69
6134;BME280;3098;42.678;23.364;2023-05-20T12:00:44;94975.22;;;22.18;43.81
6134;BME280;3098;42.678;23.364;2023-05-20T12:03:14;94981.81;;;22.24;43.54
6134;BME280;3098;42.678;23.364;2023-05-20T12:05:41;94971.84;;;22.39;44.00
6134;BME280;3098;42.678;23.364;2023-05-20T12:08:09;94981.06;;;22.31;44.01
6134;BME280;3098;42.678;23.364;2023-05-20T12:10:36;94973.66;;;22.10;45.17
6134;BME280;3098;42.678;23.364;2023-05-20T12:13:05;94973.25;;;22.12;45.30
6134;BME280;3098;42.678;23.364;2023-05-20T12:15:33;94924.19;;;21.31;46.73
6134;BME280;3098;42.678;23.364;2023-05-20T12:18:01;94963.44;;;21.25;47.99
6134;BME280;3098;42.678;23.364;2023-05-20T12:20:29;94965.63;;;21.12;47.29
6134;BME280;3098;42.678;23.364;2023-05-20T12:22:58;94972.59;;;20.76;47.92
6134;BME280;3098;42.678;23.364;2023-05-20T12:25:26;94971.19;;;21.30;46.71
6134;BME280;3098;42.678;23.364;2023-05-20T12:27:54;94963.34;;;20.74;45.05
6134;BME280;3098;42.678;23.364;2023-05-20T12:30:23;94970.53;;;20.29;45.56
6134;BME280;3098;42.678;23.364;2023-05-20T12:32:50;95003.13;;;20.50;46.53
6134;BME280;3098;42.678;23.364;2023-05-20T12:35:24;95016.09;;;20.41;47.75
6134;BME280;3098;42.678;23.364;2023-05-20T12:37:53;95021.16;;;19.90;47.43
6134;BME280;3098;42.678;23.364;2023-05-20T12:40:21;95004.09;;;19.79;46.56
6134;BME280;3098;42.678;23.364;2023-05-20T12:42:49;95019.22;;;19.87;45.98
6134;BME280;3098;42.678;23.364;2023-05-20T12:45:16;94997.25;;;19.59;45.97
6134;BME280;3098;42.678;23.364;2023-05-20T12:47:44;94993.59;;;19.44;46.50
6134;BME280;3098;42.678;23.364;2023-05-20T12:50:13;95017.38;;;19.20;46.72
6134;BME280;3098;42.678;23.364;2023-05-20T12:52:40;94967.78;;;18.72;48.74
6134;BME280;3098;42.678;23.364;2023-05-20T12:55:08;95006.84;;;19.57;48.08
6134;BME280;3098;42.678;23.364;2023-05-20T12:57:38;94961.03;;;19.53;47.35
6134;BME280;3098;42.678;23.364;2023-05-20T13:00:07;94874.59;;;18.76;47.19
6134;BME280;3098;42.678;23.364;2023-05-20T13:02:35;94984.84;;;20.07;47.29
6134;BME280;3098;42.678;23.364;2023-05-20T13:05:04;94982.41;;;20.25;47.92
6134;BME280;3098;42.678;23.364;2023-05-20T13:07:32;94929.78;;;20.31;47.71
6134;BME280;3098;42.678;23.364;2023-05-20T13:09:59;94939.91;;;20.81;47.26
6134;BME280;3098;42.678;23.364;2023-05-20T13:12:27;94898.19;;;19.98;48.53
6134;BME280;3098;42.678;23.364;2023-05-20T13:14:54;94972.94;;;21.08;46.87